sensor_id;sensor_type;location;lat;lon;timestamp;P1;durP1;ratioP1;P2;durP2;ratioP2
23866;SDS011;12114;53.404;-1.502;2022-11-03T00:00:06;19.42;;;3.30;;
23866;SDS011;12114;53.404;-1.502;2022-11-03T00:02:32;18.38;;;3.58;;
23866;SDS011;12114;53.404;-1.502;2022-11-03T00:04:57;21.60;;;3.97;;
23866;SDS011;12114;53.404;-1.502;2022-11-03T00:07:43;25.25;;;4.03;;
23866;SDS011;12114;53.404;-1.502;2022-11-03T00:10:08;19.13;;;3.58;;
23866;SDS011;12114;53.404;-1.502;2022-11-03T00:12:34;21.08;;;3.45;;
23866;SDS011;12114;53.404;-1.502;2022-11-03T00:14:59;25.48;;;3.97;;
23866;SDS011;12114;53.404;-1.502;2022-11-03T00:17:25;16.27;;;3.50;;
23866;SDS011;12114;53.404;-1.502;2022-11-03T00:19:50;18.00;;;3.30;;
23866;SDS011;12114;53.404;-1.502;2022-11-03T00:22:16;17.90;;;2.88;;
23866;SDS011;12114;53.404;-1.502;2022-11-03T00:24:41;21.50;;;2.88;;
23866;SDS011;12114;53.404;-1.502;2022-11-03T00:27:06;15.45;;;2.85;;
23866;SDS011;12114;53.404;-1.502;2022-11-03T00:29:31;14.45;;;2.50;;
23866;SDS011;12114;53.404;-1.502;2022-11-03T00:31:57;13.52;;;2.25;;
23866;SDS011;12114;53.404;-1.502;2022-11-03T00:34:22;11.55;;;2.85;;
23866;SDS011;12114;53.404;-1.502;2022-11-03T00:36:47;20.42;;;3.33;;
23866;SDS011;12114;53.404;-1.502;2022-11-03T00:39:13;14.00;;;2.40;;
23866;SDS011;12114;53.404;-1.502;2022-11-03T00:41:38;16.40;;;2.83;;
23866;SDS011;12114;53.404;-1.502;2022-11-03T00:44:04;14.15;;;2.80;;
23866;SDS011;12114;53.404;-1.502;2022-11-03T00:46:29;15.80;;;3.00;;
23866;SDS011;12114;53.404;-1.502;2022-11-03T00:48:58;14.68;;;2.60;;
23866;SDS011;12114;53.404;-1.502;2022-11-03T00:51:25;15.02;;;2.47;;
23866;SDS011;12114;53.404;-1.502;2022-11-03T00:56:17;18.15;;;2.95;;
23866;SDS011;12114;53.404;-1.502;2022-11-03T00:59:27;17.75;;;2.67;;
23866;SDS011;12114;53.404;-1.502;2022-11-03T01:02:17;20.60;;;2.47;;
23866;SDS011;12114;53.404;-1.502;2022-11-03T01:04:43;17.15;;;2.72;;
23866;SDS011;12114;53.404;-1.502;2022-11-03T01:07:27;14.68;;;2.28;;
23866;SDS011;12114;53.404;-1.502;2022-11-03T01:09:52;16.38;;;2.70;;
23866;SDS011;12114;53.404;-1.502;2022-11-03T01:12:18;20.83;;;2.22;;
23866;SDS011;12114;53.404;-1.502;2022-11-03T01:14:44;15.05;;;2.90;;
23866;SDS011;12114;53.404;-1.502;2022-11-03T01:17:14;11.00;;;2.30;;
23866;SDS011;12114;53.404;-1.502;2022-11-03T01:19:40;13.05;;;2.30;;
23866;SDS011;12114;53.404;-1.502;2022-11-03T01:22:06;12.23;;;2.38;;
23866;SDS011;12114;53.404;-1.502;2022-11-03T01:24:31;17.58;;;3.25;;
23866;SDS011;12114;53.404;-1.502;2022-11-03T01:26:58;16.77;;;2.03;;
23866;SDS011;12114;53.404;-1.502;2022-11-03T01:29:23;15.60;;;2.50;;
23866;SDS011;12114;53.404;-1.502;2022-11-03T01:31:48;13.93;;;2.20;;
23866;SDS011;12114;53.404;-1.502;2022-11-03T01:34:14;15.02;;;2.50;;
23866;SDS011;12114;53.404;-1.502;2022-11-03T01:36:40;13.98;;;2.00;;
23866;SDS011;12114;53.404;-1.502;2022-11-03T01:39:07;12.18;;;2.15;;
23866;SDS011;12114;53.404;-1.502;2022-11-03T01:41:33;8.40;;;1.63;;
23866;SDS011;12114;53.404;-1.502;2022-11-03T01:47:20;18.67;;;2.80;;
23866;SDS011;12114;53.404;-1.502;2022-11-03T01:49:24;19.45;;;2.75;;
23866;SDS011;12114;53.404;-1.502;2022-11-03T01:51:53;16.67;;;2.50;;
23866;SDS011;12114;53.404;-1.502;2022-11-03T01:54:20;16.33;;;1.98;;
23866;SDS011;12114;53.404;-1.502;2022-11-03T01:56:47;16.05;;;2.53;;
23866;SDS011;12114;53.404;-1.502;2022-11-03T01:59:14;13.90;;;2.20;;
23866;SDS011;12114;53.404;-1.502;2022-11-03T02:04:36;14.85;;;2.90;;
23866;SDS011;12114;53.404;-1.502;2022-11-03T02:20:34;16.88;;;3.03;;
23866;SDS011;12114;53.404;-1.502;2022-11-03T02:27:56;14.35;;;1.95;;
23866;SDS011;12114;53.404;-1.502;2022-11-03T02:30:22;20.15;;;3.03;;
23866;SDS011;12114;53.404;-1.502;2022-11-03T02:32:51;17.08;;;2.50;;
23866;SDS011;12114;53.404;-1.502;2022-11-03T02:35:34;19.85;;;2.70;;
23866;SDS011;12114;53.404;-1.502;2022-11-03T02:38:02;14.05;;;2.25;;
23866;SDS011;12114;53.404;-1.502;2022-11-03T02:40:31;17.40;;;2.42;;
23866;SDS011;12114;53.404;-1.502;2022-11-03T02:42:58;17.27;;;2.45;;
23866;SDS011;12114;53.404;-1.502;2022-11-03T02:45:25;18.35;;;2.40;;
23866;SDS011;12114;53.404;-1.502;2022-11-03T02:47:52;16.60;;;2.42;;
23866;SDS011;12114;53.404;-1.502;2022-11-03T02:50:24;16.77;;;2.30;;
23866;SDS011;12114;53.404;-1.502;2022-11-03T02:52:50;15.93;;;2.47;;
23866;SDS011;12114;53.404;-1.502;2022-11-03T08:12:23;24.15;;;3.97;;
23866;SDS011;12114;53.404;-1.502;2022-11-03T08:14:49;21.98;;;4.43;;
23866;SDS011;12114;53.404;-1.502;2022-11-03T08:17:14;24.48;;;4.25;;
23866;SDS011;12114;53.404;-1.502;2022-11-03T08:19:40;25.90;;;4.20;;
23866;SDS011;12114;53.404;-1.502;2022-11-03T08:22:05;25.48;;;4.18;;
23866;SDS011;12114;53.404;-1.502;2022-11-03T08:24:31;24.73;;;4.18;;
23866;SDS011;12114;53.404;-1.502;2022-11-03T08:26:56;26.00;;;4.50;;
23866;SDS011;12114;53.404;-1.502;2022-11-03T08:29:21;30.98;;;4.68;;
23866;SDS011;12114;53.404;-1.502;2022-11-03T08:31:49;22.70;;;4.88;;
23866;SDS011;12114;53.404;-1.502;2022-11-03T08:34:14;27.30;;;4.95;;
23866;SDS011;12114;53.404;-1.502;2022-11-03T08:36:39;25.88;;;5.63;;
23866;SDS011;12114;53.404;-1.502;2022-11-03T08:39:05;27.20;;;6.18;;
23866;SDS011;12114;53.404;-1.502;2022-11-03T09:13:36;31.25;;;8.48;;
23866;SDS011;12114;53.404;-1.502;2022-11-03T09:16:01;28.05;;;7.22;;
23866;SDS011;12114;53.404;-1.502;2022-11-03T09:18:27;33.47;;;8.93;;
23866;SDS011;12114;53.404;-1.502;2022-11-03T09:20:52;35.30;;;9.68;;
23866;SDS011;12114;53.404;-1.502;2022-11-03T09:23:17;25.50;;;7.57;;
23866;SDS011;12114;53.404;-1.502;2022-11-03T09:25:43;33.45;;;7.50;;
23866;SDS011;12114;53.404;-1.502;2022-11-03T09:28:09;33.15;;;6.22;;
23866;SDS011;12114;53.404;-1.502;2022-11-03T09:30:34;25.75;;;5.43;;
23866;SDS011;12114;53.404;-1.502;2022-11-03T09:32:59;31.42;;;5.10;;
23866;SDS011;12114;53.404;-1.502;2022-11-03T09:35:25;32.53;;;4.97;;
23866;SDS011;12114;53.404;-1.502;2022-11-03T09:37:50;25.15;;;5.15;;
23866;SDS011;12114;53.404;-1.502;2022-11-03T09:40:16;21.40;;;4.43;;
23866;SDS011;12114;53.404;-1.502;2022-11-03T09:50:48;21.92;;;4.45;;
23866;SDS011;12114;53.404;-1.502;2022-11-03T09:53:15;29.05;;;4.70;;
23866;SDS011;12114;53.404;-1.502;2022-11-03T09:55:40;26.90;;;5.03;;
23866;SDS011;12114;53.404;-1.502;2022-11-03T09:58:09;21.95;;;4.30;;
23866;SDS011;12114;53.404;-1.502;2022-11-03T10:03:18;20.50;;;3.95;;
23866;SDS011;12114;53.404;-1.502;2022-11-03T10:05:45;26.27;;;3.85;;
23866;SDS011;12114;53.404;-1.502;2022-11-03T10:08:17;23.25;;;4.38;;
23866;SDS011;12114;53.404;-1.502;2022-11-03T10:10:44;32.78;;;5.22;;
23866;SDS011;12114;53.404;-1.502;2022-11-03T10:13:09;18.63;;;4.03;;
23866;SDS011;12114;53.404;-1.502;2022-11-03T10:15:38;31.02;;;5.10;;
23866;SDS011;12114;53.404;-1.502;2022-11-03T10:18:04;24.15;;;4.68;;
23866;SDS011;12114;53.404;-1.502;2022-11-03T10:20:29;27.45;;;4.97;;
23866;SDS011;12114;53.404;-1.502;2022-11-03T10:22:55;26.70;;;5.05;;
23866;SDS011;12114;53.404;-1.502;2022-11-03T10:28:10;28.73;;;4.93;;
23866;SDS011;12114;53.404;-1.502;2022-11-03T10:35:58;19.52;;;3.97;;
23866;SDS011;12114;53.404;-1.502;2022-11-03T10:38:33;23.52;;;4.30;;
23866;SDS011;12114;53.404;-1.502;2022-11-03T10:43:34;17.83;;;3.35;;
23866;SDS011;12114;53.404;-1.502;2022-11-03T10:46:08;17.92;;;3.83;;
23866;SDS011;12114;53.404;-1.502;2022-11-03T10:48:33;18.08;;;3.00;;
23866;SDS011;12114;53.404;-1.502;2022-11-03T10:50:59;19.10;;;3.38;;
23866;SDS011;12114;53.404;-1.502;2022-11-03T10:53:24;15.43;;;2.60;;
23866;SDS011;12114;53.404;-1.502;2022-11-03T10:55:50;15.40;;;2.78;;
23866;SDS011;12114;53.404;-1.502;2022-11-03T10:58:15;18.48;;;3.20;;
23866;SDS011;12114;53.404;-1.502;2022-11-03T11:00:41;17.33;;;2.95;;
23866;SDS011;12114;53.404;-1.502;2022-11-03T11:03:07;15.82;;;3.75;;
23866;SDS011;12114;53.404;-1.502;2022-11-03T11:05:33;13.95;;;3.20;;
23866;SDS011;12114;53.404;-1.502;2022-11-03T11:07:58;19.67;;;3.22;;
23866;SDS011;12114;53.404;-1.502;2022-11-03T11:10:25;18.90;;;3.72;;
23866;SDS011;12114;53.404;-1.502;2022-11-03T11:13:01;12.82;;;2.60;;
23866;SDS011;12114;53.404;-1.502;2022-11-03T11:18:03;15.00;;;2.97;;
23866;SDS011;12114;53.404;-1.502;2022-11-03T11:20:32;16.35;;;2.75;;
23866;SDS011;12114;53.404;-1.502;2022-11-03T11:28:31;15.32;;;2.65;;
23866;SDS011;12114;53.404;-1.502;2022-11-03T11:30:56;21.80;;;3.17;;
23866;SDS011;12114;53.404;-1.502;2022-11-03T11:33:23;16.08;;;3.20;;
23866;SDS011;12114;53.404;-1.502;2022-11-03T11:40:58;19.67;;;2.80;;
23866;SDS011;12114;53.404;-1.502;2022-11-03T11:43:24;17.45;;;2.35;;
23866;SDS011;12114;53.404;-1.502;2022-11-03T11:48:35;12.25;;;2.28;;
23866;SDS011;12114;53.404;-1.502;2022-11-03T11:51:01;13.48;;;2.95;;
23866;SDS011;12114;53.404;-1.502;2022-11-03T11:53:26;18.17;;;2.85;;
23866;SDS011;12114;53.404;-1.502;2022-11-03T11:55:53;12.52;;;2.42;;
23866;SDS011;12114;53.404;-1.502;2022-11-03T12:00:51;14.07;;;2.83;;
23866;SDS011;12114;53.404;-1.502;2022-11-03T12:03:18;15.70;;;2.50;;
23866;SDS011;12114;53.404;-1.502;2022-11-03T12:05:48;16.00;;;2.65;;
23866;SDS011;12114;53.404;-1.502;2022-11-03T12:08:17;17.70;;;2.75;;
23866;SDS011;12114;53.404;-1.502;2022-11-03T12:10:53;15.32;;;2.90;;
23866;SDS011;12114;53.404;-1.502;2022-11-03T12:16:02;11.23;;;2.47;;
23866;SDS011;12114;53.404;-1.502;2022-11-03T12:20:53;12.27;;;2.92;;
23866;SDS011;12114;53.404;-1.502;2022-11-03T12:23:32;12.32;;;2.80;;
23866;SDS011;12114;53.404;-1.502;2022-11-03T12:25:57;16.60;;;3.78;;
23866;SDS011;12114;53.404;-1.502;2022-11-03T12:28:33;10.32;;;2.85;;
23866;SDS011;12114;53.404;-1.502;2022-11-03T12:30:58;11.73;;;3.20;;
23866;SDS011;12114;53.404;-1.502;2022-11-03T12:33:25;19.30;;;3.72;;
23866;SDS011;12114;53.404;-1.502;2022-11-03T12:35:50;12.15;;;3.13;;
23866;SDS011;12114;53.404;-1.502;2022-11-03T12:38:16;12.93;;;2.40;;
23866;SDS011;12114;53.404;-1.502;2022-11-03T12:40:41;14.23;;;2.47;;
23866;SDS011;12114;53.404;-1.502;2022-11-03T12:43:07;9.80;;;2.33;;
23866;SDS011;12114;53.404;-1.502;2022-11-03T12:45:33;13.32;;;2.47;;
23866;SDS011;12114;53.404;-1.502;2022-11-03T12:47:58;12.32;;;2.78;;
23866;SDS011;12114;53.404;-1.502;2022-11-03T12:50:24;12.88;;;2.10;;
23866;SDS011;12114;53.404;-1.502;2022-11-03T12:52:50;15.55;;;2.17;;
23866;SDS011;12114;53.404;-1.502;2022-11-03T12:55:15;14.85;;;2.22;;
23866;SDS011;12114;53.404;-1.502;2022-11-03T12:57:40;14.60;;;2.58;;
23866;SDS011;12114;53.404;-1.502;2022-11-03T13:00:06;11.75;;;2.08;;
23866;SDS011;12114;53.404;-1.502;2022-11-03T13:02:32;11.20;;;2.70;;
23866;SDS011;12114;53.404;-1.502;2022-11-03T13:04:58;11.77;;;2.45;;
23866;SDS011;12114;53.404;-1.502;2022-11-03T13:07:24;9.45;;;2.35;;
23866;SDS011;12114;53.404;-1.502;2022-11-03T13:09:49;13.75;;;2.53;;
23866;SDS011;12114;53.404;-1.502;2022-11-03T13:12:14;14.23;;;2.60;;
23866;SDS011;12114;53.404;-1.502;2022-11-03T13:14:55;14.63;;;2.75;;
23866;SDS011;12114;53.404;-1.502;2022-11-03T13:17:21;20.48;;;2.72;;
23866;SDS011;12114;53.404;-1.502;2022-11-03T13:19:47;12.80;;;2.03;;
23866;SDS011;12114;53.404;-1.502;2022-11-03T13:22:12;14.68;;;2.50;;
23866;SDS011;12114;53.404;-1.502;2022-11-03T13:24:38;14.40;;;3.42;;
23866;SDS011;12114;53.404;-1.502;2022-11-03T13:27:03;13.40;;;2.88;;
23866;SDS011;12114;53.404;-1.502;2022-11-03T13:29:28;14.68;;;2.83;;
23866;SDS011;12114;53.404;-1.502;2022-11-03T13:31:54;15.15;;;3.25;;
23866;SDS011;12114;53.404;-1.502;2022-11-03T13:34:20;15.32;;;3.15;;
23866;SDS011;12114;53.404;-1.502;2022-11-03T13:36:46;12.02;;;2.65;;
23866;SDS011;12114;53.404;-1.502;2022-11-03T13:39:12;17.13;;;3.53;;
23866;SDS011;12114;53.404;-1.502;2022-11-03T13:41:37;15.20;;;2.70;;
23866;SDS011;12114;53.404;-1.502;2022-11-03T13:44:03;20.13;;;3.22;;
23866;SDS011;12114;53.404;-1.502;2022-11-03T13:46:29;15.40;;;2.65;;
23866;SDS011;12114;53.404;-1.502;2022-11-03T13:48:54;13.68;;;3.13;;
23866;SDS011;12114;53.404;-1.502;2022-11-03T13:51:19;13.20;;;2.90;;
23866;SDS011;12114;53.404;-1.502;2022-11-03T13:53:46;15.38;;;2.70;;
23866;SDS011;12114;53.404;-1.502;2022-11-03T13:56:11;13.98;;;2.72;;
23866;SDS011;12114;53.404;-1.502;2022-11-03T13:58:37;10.80;;;2.20;;
23866;SDS011;12114;53.404;-1.502;2022-11-03T14:01:03;13.13;;;2.53;;
23866;SDS011;12114;53.404;-1.502;2022-11-03T14:03:28;12.00;;;2.20;;
23866;SDS011;12114;53.404;-1.502;2022-11-03T14:05:54;7.65;;;1.90;;
23866;SDS011;12114;53.404;-1.502;2022-11-03T14:08:19;16.20;;;2.20;;
23866;SDS011;12114;53.404;-1.502;2022-11-03T14:10:44;16.30;;;2.15;;
23866;SDS011;12114;53.404;-1.502;2022-11-03T14:13:10;13.05;;;2.03;;
23866;SDS011;12114;53.404;-1.502;2022-11-03T14:15:36;7.78;;;1.60;;
23866;SDS011;12114;53.404;-1.502;2022-11-03T14:18:01;9.35;;;1.92;;
23866;SDS011;12114;53.404;-1.502;2022-11-03T14:20:26;10.32;;;2.17;;
23866;SDS011;12114;53.404;-1.502;2022-11-03T14:22:52;13.80;;;2.00;;
23866;SDS011;12114;53.404;-1.502;2022-11-03T14:25:17;13.65;;;2.30;;
23866;SDS011;12114;53.404;-1.502;2022-11-03T14:27:44;11.60;;;2.22;;
23866;SDS011;12114;53.404;-1.502;2022-11-03T14:30:10;7.43;;;2.33;;
23866;SDS011;12114;53.404;-1.502;2022-11-03T14:32:36;8.82;;;1.98;;
23866;SDS011;12114;53.404;-1.502;2022-11-03T14:35:02;13.32;;;2.60;;
23866;SDS011;12114;53.404;-1.502;2022-11-03T14:37:27;13.80;;;2.38;;
23866;SDS011;12114;53.404;-1.502;2022-11-03T14:39:53;16.95;;;2.25;;
23866;SDS011;12114;53.404;-1.502;2022-11-03T14:42:19;13.18;;;2.17;;
23866;SDS011;12114;53.404;-1.502;2022-11-03T14:44:44;7.35;;;1.90;;
23866;SDS011;12114;53.404;-1.502;2022-11-03T14:47:12;14.23;;;2.42;;
23866;SDS011;12114;53.404;-1.502;2022-11-03T14:49:37;7.68;;;1.88;;
23866;SDS011;12114;53.404;-1.502;2022-11-03T14:52:03;7.88;;;1.50;;
23866;SDS011;12114;53.404;-1.502;2022-11-03T14:54:29;13.55;;;1.50;;
23866;SDS011;12114;53.404;-1.502;2022-11-03T14:56:55;14.82;;;2.10;;
23866;SDS011;12114;53.404;-1.502;2022-11-03T14:59:20;13.82;;;2.03;;
23866;SDS011;12114;53.404;-1.502;2022-11-03T15:01:46;9.50;;;1.90;;
23866;SDS011;12114;53.404;-1.502;2022-11-03T15:04:12;12.00;;;2.17;;
23866;SDS011;12114;53.404;-1.502;2022-11-03T15:06:38;10.18;;;1.88;;
23866;SDS011;12114;53.404;-1.502;2022-11-03T15:09:04;13.48;;;2.20;;
23866;SDS011;12114;53.404;-1.502;2022-11-03T15:11:30;12.88;;;1.60;;
23866;SDS011;12114;53.404;-1.502;2022-11-03T15:13:55;14.60;;;2.22;;
23866;SDS011;12114;53.404;-1.502;2022-11-03T15:16:20;11.10;;;1.95;;
23866;SDS011;12114;53.404;-1.502;2022-11-03T15:18:46;7.05;;;1.67;;
23866;SDS011;12114;53.404;-1.502;2022-11-03T15:21:12;10.13;;;1.92;;
23866;SDS011;12114;53.404;-1.502;2022-11-03T15:23:37;11.55;;;1.80;;
23866;SDS011;12114;53.404;-1.502;2022-11-03T15:26:03;11.73;;;2.03;;
23866;SDS011;12114;53.404;-1.502;2022-11-03T15:28:28;10.80;;;2.22;;
23866;SDS011;12114;53.404;-1.502;2022-11-03T15:30:53;11.55;;;2.33;;
23866;SDS011;12114;53.404;-1.502;2022-11-03T15:33:21;13.10;;;2.85;;
23866;SDS011;12114;53.404;-1.502;2022-11-03T15:35:46;12.63;;;2.17;;
23866;SDS011;12114;53.404;-1.502;2022-11-03T15:38:12;13.32;;;2.30;;
23866;SDS011;12114;53.404;-1.502;2022-11-03T15:40:37;11.63;;;1.98;;
23866;SDS011;12114;53.404;-1.502;2022-11-03T15:43:03;8.15;;;1.50;;
23866;SDS011;12114;53.404;-1.502;2022-11-03T15:45:30;9.18;;;1.88;;
23866;SDS011;12114;53.404;-1.502;2022-11-03T15:47:56;12.48;;;1.90;;
23866;SDS011;12114;53.404;-1.502;2022-11-03T15:50:21;10.77;;;1.50;;
23866;SDS011;12114;53.404;-1.502;2022-11-03T15:52:46;11.15;;;2.28;;
23866;SDS011;12114;53.404;-1.502;2022-11-03T15:55:12;10.45;;;2.42;;
23866;SDS011;12114;53.404;-1.502;2022-11-03T15:57:37;8.00;;;2.08;;
23866;SDS011;12114;53.404;-1.502;2022-11-03T16:00:03;11.20;;;2.45;;
23866;SDS011;12114;53.404;-1.502;2022-11-03T16:02:30;12.25;;;2.45;;
23866;SDS011;12114;53.404;-1.502;2022-11-03T16:04:55;19.17;;;3.38;;
23866;SDS011;12114;53.404;-1.502;2022-11-03T16:07:21;13.07;;;3.83;;
23866;SDS011;12114;53.404;-1.502;2022-11-03T16:09:47;18.90;;;3.55;;
23866;SDS011;12114;53.404;-1.502;2022-11-03T16:12:13;15.75;;;4.32;;
23866;SDS011;12114;53.404;-1.502;2022-11-03T16:14:39;16.67;;;3.83;;
23866;SDS011;12114;53.404;-1.502;2022-11-03T16:17:04;17.70;;;4.25;;
23866;SDS011;12114;53.404;-1.502;2022-11-03T16:19:30;17.52;;;4.13;;
23866;SDS011;12114;53.404;-1.502;2022-11-03T16:21:56;12.23;;;4.32;;
23866;SDS011;12114;53.404;-1.502;2022-11-03T16:24:21;14.32;;;4.90;;
23866;SDS011;12114;53.404;-1.502;2022-11-03T16:26:46;17.30;;;4.50;;
23866;SDS011;12114;53.404;-1.502;2022-11-03T16:29:12;13.32;;;4.07;;
23866;SDS011;12114;53.404;-1.502;2022-11-03T16:31:37;18.92;;;8.10;;
23866;SDS011;12114;53.404;-1.502;2022-11-03T16:34:02;17.20;;;6.40;;
23866;SDS011;12114;53.404;-1.502;2022-11-03T16:36:29;15.35;;;4.35;;
23866;SDS011;12114;53.404;-1.502;2022-11-03T16:38:55;19.50;;;4.15;;
23866;SDS011;12114;53.404;-1.502;2022-11-03T16:41:20;15.73;;;3.90;;
23866;SDS011;12114;53.404;-1.502;2022-11-03T16:43:45;14.38;;;4.22;;
23866;SDS011;12114;53.404;-1.502;2022-11-03T16:46:12;14.82;;;4.60;;
23866;SDS011;12114;53.404;-1.502;2022-11-03T16:48:38;16.15;;;4.03;;
23866;SDS011;12114;53.404;-1.502;2022-11-03T16:51:03;14.13;;;4.68;;
23866;SDS011;12114;53.404;-1.502;2022-11-03T16:53:29;11.25;;;3.78;;
23866;SDS011;12114;53.404;-1.502;2022-11-03T16:55:54;13.10;;;3.47;;
23866;SDS011;12114;53.404;-1.502;2022-11-03T16:58:19;18.13;;;5.50;;
23866;SDS011;12114;53.404;-1.502;2022-11-03T17:00:45;15.20;;;5.15;;
23866;SDS011;12114;53.404;-1.502;2022-11-03T17:03:10;18.95;;;7.10;;
23866;SDS011;12114;53.404;-1.502;2022-11-03T17:05:35;25.13;;;8.95;;
23866;SDS011;12114;53.404;-1.502;2022-11-03T17:08:01;30.50;;;9.70;;
23866;SDS011;12114;53.404;-1.502;2022-11-03T17:10:26;29.92;;;10.95;;
23866;SDS011;12114;53.404;-1.502;2022-11-03T17:12:53;24.50;;;8.68;;
23866;SDS011;12114;53.404;-1.502;2022-11-03T17:15:18;32.70;;;9.00;;
23866;SDS011;12114;53.404;-1.502;2022-11-03T17:17:44;18.67;;;6.47;;
23866;SDS011;12114;53.404;-1.502;2022-11-03T17:20:09;9.88;;;4.93;;
23866;SDS011;12114;53.404;-1.502;2022-11-03T17:22:36;19.75;;;5.63;;
23866;SDS011;12114;53.404;-1.502;2022-11-03T17:25:02;18.63;;;7.97;;
23866;SDS011;12114;53.404;-1.502;2022-11-03T17:27:28;22.25;;;9.45;;
23866;SDS011;12114;53.404;-1.502;2022-11-03T17:30:00;17.08;;;6.95;;
23866;SDS011;12114;53.404;-1.502;2022-11-03T17:32:35;14.25;;;5.60;;
23866;SDS011;12114;53.404;-1.502;2022-11-03T17:35:01;16.63;;;6.15;;
23866;SDS011;12114;53.404;-1.502;2022-11-03T17:37:27;17.92;;;5.70;;
23866;SDS011;12114;53.404;-1.502;2022-11-03T17:39:53;15.73;;;4.70;;
23866;SDS011;12114;53.404;-1.502;2022-11-03T17:42:23;17.30;;;5.40;;
23866;SDS011;12114;53.404;-1.502;2022-11-03T17:44:50;20.90;;;6.10;;
23866;SDS011;12114;53.404;-1.502;2022-11-03T17:47:16;17.60;;;6.07;;
23866;SDS011;12114;53.404;-1.502;2022-11-03T17:49:42;20.67;;;8.38;;
23866;SDS011;12114;53.404;-1.502;2022-11-03T17:52:12;25.45;;;9.23;;
23866;SDS011;12114;53.404;-1.502;2022-11-03T17:54:38;19.77;;;7.60;;
23866;SDS011;12114;53.404;-1.502;2022-11-03T17:57:04;22.40;;;8.75;;
23866;SDS011;12114;53.404;-1.502;2022-11-03T17:59:29;17.73;;;6.35;;
23866;SDS011;12114;53.404;-1.502;2022-11-03T18:01:55;19.00;;;6.40;;
23866;SDS011;12114;53.404;-1.502;2022-11-03T18:04:21;11.57;;;4.75;;
23866;SDS011;12114;53.404;-1.502;2022-11-03T18:06:46;13.93;;;4.78;;
23866;SDS011;12114;53.404;-1.502;2022-11-03T18:09:12;16.33;;;6.28;;
23866;SDS011;12114;53.404;-1.502;2022-11-03T18:11:37;18.25;;;4.85;;
23866;SDS011;12114;53.404;-1.502;2022-11-03T18:14:24;16.85;;;7.60;;
23866;SDS011;12114;53.404;-1.502;2022-11-03T18:16:50;16.15;;;6.05;;
23866;SDS011;12114;53.404;-1.502;2022-11-03T18:19:16;19.75;;;7.20;;
23866;SDS011;12114;53.404;-1.502;2022-11-03T18:21:41;15.38;;;5.35;;
23866;SDS011;12114;53.404;-1.502;2022-11-03T18:24:12;19.98;;;6.53;;
23866;SDS011;12114;53.404;-1.502;2022-11-03T18:26:37;15.02;;;5.80;;
23866;SDS011;12114;53.404;-1.502;2022-11-03T18:29:03;16.42;;;6.30;;
23866;SDS011;12114;53.404;-1.502;2022-11-03T18:31:33;20.02;;;7.20;;
23866;SDS011;12114;53.404;-1.502;2022-11-03T18:33:59;21.70;;;6.45;;
23866;SDS011;12114;53.404;-1.502;2022-11-03T18:36:25;23.10;;;11.35;;
23866;SDS011;12114;53.404;-1.502;2022-11-03T18:38:51;20.17;;;6.90;;
23866;SDS011;12114;53.404;-1.502;2022-11-03T18:41:18;16.50;;;7.53;;
23866;SDS011;12114;53.404;-1.502;2022-11-03T18:44:11;15.40;;;5.68;;
23866;SDS011;12114;53.404;-1.502;2022-11-03T18:46:37;15.60;;;5.78;;
23866;SDS011;12114;53.404;-1.502;2022-11-03T18:49:02;17.05;;;6.38;;
23866;SDS011;12114;53.404;-1.502;2022-11-03T18:51:27;14.60;;;6.10;;
23866;SDS011;12114;53.404;-1.502;2022-11-03T18:53:53;20.85;;;7.13;;
23866;SDS011;12114;53.404;-1.502;2022-11-03T18:56:18;13.73;;;6.50;;
23866;SDS011;12114;53.404;-1.502;2022-11-03T18:58:44;17.23;;;6.45;;
23866;SDS011;12114;53.404;-1.502;2022-11-03T19:01:20;17.65;;;6.00;;
23866;SDS011;12114;53.404;-1.502;2022-11-03T19:03:45;17.83;;;6.88;;
23866;SDS011;12114;53.404;-1.502;2022-11-03T19:06:12;18.92;;;7.65;;
23866;SDS011;12114;53.404;-1.502;2022-11-03T19:08:37;18.08;;;7.18;;
23866;SDS011;12114;53.404;-1.502;2022-11-03T19:11:03;22.38;;;8.00;;
23866;SDS011;12114;53.404;-1.502;2022-11-03T19:13:32;18.17;;;7.85;;
23866;SDS011;12114;53.404;-1.502;2022-11-03T19:15:59;12.35;;;5.80;;
23866;SDS011;12114;53.404;-1.502;2022-11-03T19:18:26;15.43;;;4.95;;
23866;SDS011;12114;53.404;-1.502;2022-11-03T19:20:51;15.20;;;5.30;;
23866;SDS011;12114;53.404;-1.502;2022-11-03T19:23:17;19.70;;;7.50;;
23866;SDS011;12114;53.404;-1.502;2022-11-03T19:25:42;18.08;;;7.50;;
23866;SDS011;12114;53.404;-1.502;2022-11-03T19:28:11;22.38;;;4.78;;
23866;SDS011;12114;53.404;-1.502;2022-11-03T19:30:37;20.17;;;4.28;;
23866;SDS011;12114;53.404;-1.502;2022-11-03T19:33:03;19.92;;;5.40;;
23866;SDS011;12114;53.404;-1.502;2022-11-03T19:35:32;27.58;;;10.95;;
23866;SDS011;12114;53.404;-1.502;2022-11-03T19:38:02;27.13;;;10.63;;
23866;SDS011;12114;53.404;-1.502;2022-11-03T19:40:28;31.10;;;13.00;;
23866;SDS011;12114;53.404;-1.502;2022-11-03T19:42:53;23.70;;;10.00;;
23866;SDS011;12114;53.404;-1.502;2022-11-03T19:45:19;24.52;;;8.50;;
23866;SDS011;12114;53.404;-1.502;2022-11-03T19:50:18;31.00;;;13.60;;
23866;SDS011;12114;53.404;-1.502;2022-11-03T19:52:46;24.85;;;12.48;;
23866;SDS011;12114;53.404;-1.502;2022-11-03T19:55:12;25.35;;;11.20;;
23866;SDS011;12114;53.404;-1.502;2022-11-03T19:57:39;19.17;;;7.90;;
23866;SDS011;12114;53.404;-1.502;2022-11-03T20:00:14;15.65;;;7.93;;
23866;SDS011;12114;53.404;-1.502;2022-11-03T20:02:44;15.65;;;6.18;;
23866;SDS011;12114;53.404;-1.502;2022-11-03T20:05:12;15.60;;;7.13;;
23866;SDS011;12114;53.404;-1.502;2022-11-03T20:07:39;18.38;;;6.25;;
23866;SDS011;12114;53.404;-1.502;2022-11-03T20:10:07;18.35;;;6.70;;
23866;SDS011;12114;53.404;-1.502;2022-11-03T20:12:34;16.42;;;7.00;;
23866;SDS011;12114;53.404;-1.502;2022-11-03T20:14:59;18.08;;;6.55;;
23866;SDS011;12114;53.404;-1.502;2022-11-03T20:17:25;18.85;;;7.18;;
23866;SDS011;12114;53.404;-1.502;2022-11-03T20:19:51;23.95;;;8.80;;
23866;SDS011;12114;53.404;-1.502;2022-11-03T20:22:20;21.48;;;9.00;;
23866;SDS011;12114;53.404;-1.502;2022-11-03T20:24:46;21.15;;;9.02;;
23866;SDS011;12114;53.404;-1.502;2022-11-03T20:27:14;23.50;;;10.27;;
23866;SDS011;12114;53.404;-1.502;2022-11-03T20:29:39;23.15;;;8.88;;
23866;SDS011;12114;53.404;-1.502;2022-11-03T20:32:05;22.77;;;8.63;;
23866;SDS011;12114;53.404;-1.502;2022-11-03T20:34:31;22.35;;;7.60;;
23866;SDS011;12114;53.404;-1.502;2022-11-03T20:36:57;14.63;;;5.80;;
23866;SDS011;12114;53.404;-1.502;2022-11-03T20:39:23;19.83;;;6.43;;
23866;SDS011;12114;53.404;-1.502;2022-11-03T20:41:48;11.52;;;4.88;;
23866;SDS011;12114;53.404;-1.502;2022-11-03T20:44:16;16.33;;;4.45;;
23866;SDS011;12114;53.404;-1.502;2022-11-03T20:46:42;14.02;;;5.00;;
23866;SDS011;12114;53.404;-1.502;2022-11-03T20:49:07;18.75;;;8.57;;
23866;SDS011;12114;53.404;-1.502;2022-11-03T20:51:33;20.48;;;6.70;;
23866;SDS011;12114;53.404;-1.502;2022-11-03T20:54:04;15.57;;;5.32;;
23866;SDS011;12114;53.404;-1.502;2022-11-03T20:56:35;20.70;;;6.47;;
23866;SDS011;12114;53.404;-1.502;2022-11-03T20:59:00;18.30;;;6.20;;
23866;SDS011;12114;53.404;-1.502;2022-11-03T21:01:31;15.45;;;7.63;;
23866;SDS011;12114;53.404;-1.502;2022-11-03T21:04:00;21.77;;;7.10;;
23866;SDS011;12114;53.404;-1.502;2022-11-03T21:06:26;13.95;;;6.95;;
23866;SDS011;12114;53.404;-1.502;2022-11-03T21:08:52;22.40;;;10.10;;
23866;SDS011;12114;53.404;-1.502;2022-11-03T21:11:18;31.35;;;14.32;;
23866;SDS011;12114;53.404;-1.502;2022-11-03T21:13:58;26.75;;;14.07;;
23866;SDS011;12114;53.404;-1.502;2022-11-03T21:16:25;21.55;;;9.32;;
23866;SDS011;12114;53.404;-1.502;2022-11-03T21:19:23;18.15;;;8.13;;
23866;SDS011;12114;53.404;-1.502;2022-11-03T21:22:14;19.40;;;8.65;;